Time;durP1;ratioP1;P1;durP2;ratioP2;P2;SDS_P1;SDS_P2;PMS_P1;PMS_P2;Temp;Humidity;BMP_temperature;BMP_pressure;BME280_temperature;BME280_humidity;BME280_pressure;Samples;Min_cycle;Max_cycle;Signal;HPM_P1;HPM_P2
2021/08/23 00:00:25;;;;;;;9.35;6.82;;;16.50;99.90;;;;;;5091093;28;20024;-41
2021/08/23 00:02:50;;;;;;;10.35;6.88;;;16.40;99.90;;;;;;5089714;28;20451;-42
2021/08/23 00:05:16;;;;;;;10.75;7.65;;;16.40;99.90;;;;;;5090805;28;20465;-41
2021/08/23 00:07:41;;;;;;;9.68;8.30;;;16.40;99.90;;;;;;5089758;28;20027;-42
2021/08/23 00:10:08;;;;;;;8.80;7.05;;;16.40;99.90;;;;;;5090970;28;20052;-42
2021/08/23 00:12:34;;;;;;;8.77;6.80;;;16.30;99.90;;;;;;5090900;28;20035;-42
2021/08/23 00:14:59;;;;;;;12.65;7.85;;;16.20;99.90;;;;;;5090722;28;20029;-41
2021/08/23 00:17:25;;;;;;;11.55;7.93;;;16.20;99.90;;;;;;5090050;28;20020;-41
2021/08/23 00:19:50;;;;;;;8.75;7.03;;;16.10;99.90;;;;;;5090464;28;20173;-41
2021/08/23 00:22:33;;;;;;;17.33;8.38;;;16.10;99.90;;;;;;5090534;28;20480;-42
2021/08/23 00:25:00;;;;;;;9.18;7.63;;;16.00;99.90;;;;;;5075454;28;20078;-41
2021/08/23 00:27:27;;;;;;;16.92;7.97;;;16.00;99.90;;;;;;5081321;28;20107;-41
2021/08/23 00:29:53;;;;;;;7.53;6.57;;;16.00;99.90;;;;;;5090384;28;20028;-41
2021/08/23 00:32:19;;;;;;;8.25;7.05;;;15.90;99.90;;;;;;5090328;28;20166;-42
2021/08/23 00:34:45;;;;;;;8.25;7.32;;;16.00;99.90;;;;;;5090292;28;20027;-42
2021/08/23 00:37:10;;;;;;;8.35;7.25;;;15.90;99.90;;;;;;5089797;28;20027;-42
2021/08/23 00:39:37;;;;;;;8.15;6.50;;;15.90;99.90;;;;;;5089894;28;20031;-41
2021/08/23 00:42:04;;;;;;;7.35;6.43;;;15.80;99.90;;;;;;5090162;28;20169;-41
2021/08/23 00:44:34;;;;;;;12.57;6.47;;;15.80;99.90;;;;;;5090054;28;20035;-41
2021/08/23 00:47:00;;;;;;;6.95;5.85;;;15.80;99.90;;;;;;5089610;28;20249;-41
2021/08/23 00:49:28;;;;;;;10.00;6.95;;;15.70;99.90;;;;;;5090208;28;20032;-41
2021/08/23 00:51:55;;;;;;;8.57;6.65;;;15.70;99.90;;;;;;5090163;28;20039;-41
2021/08/23 00:54:21;;;;;;;17.45;8.48;;;15.70;99.90;;;;;;5082098;28;20107;-42
2021/08/23 00:56:47;;;;;;;10.25;7.93;;;15.70;99.90;;;;;;5075099;28;20569;-42
2021/08/23 00:59:13;;;;;;;13.50;9.48;;;15.70;99.90;;;;;;5089277;28;20036;-43
2021/08/23 01:02:08;;;;;;;11.80;8.88;;;15.60;99.90;;;;;;5088393;28;20040;-41
2021/08/23 01:04:49;;;;;;;14.38;9.45;;;15.60;99.90;;;;;;5089523;28;20023;-41
2021/08/23 01:07:17;;;;;;;12.35;9.90;;;15.60;99.90;;;;;;5089068;28;20057;-41
2021/08/23 01:09:49;;;;;;;15.52;9.60;;;15.60;99.90;;;;;;5089225;28;20056;-42
2021/08/23 01:12:15;;;;;;;14.15;10.05;;;15.60;99.90;;;;;;5088160;28;20028;-42
2021/08/23 01:14:41;;;;;;;10.20;8.57;;;15.60;99.90;;;;;;5087988;28;20194;-43
2021/08/23 01:17:07;;;;;;;15.02;9.23;;;15.60;99.90;;;;;;5088840;28;20039;-42
2021/08/23 01:19:33;;;;;;;10.15;8.05;;;15.60;99.90;;;;;;5087092;28;20024;-42
2021/08/23 01:22:04;;;;;;;16.05;8.73;;;15.60;99.90;;;;;;5089250;28;20073;-43
2021/08/23 01:24:33;;;;;;;10.80;8.10;;;15.60;99.90;;;;;;5078530;28;20021;-42
2021/08/23 01:27:02;;;;;;;16.48;9.15;;;15.60;99.90;;;;;;5077868;28;20514;-42
2021/08/23 01:29:39;;;;;;;15.93;8.30;;;15.60;99.90;;;;;;5087930;28;20024;-42
2021/08/23 01:32:12;;;;;;;11.75;8.48;;;15.60;99.90;;;;;;5089617;28;20466;-41
2021/08/23 01:34:39;;;;;;;11.38;8.07;;;15.60;99.90;;;;;;5088963;28;20468;-41
2021/08/23 01:37:05;;;;;;;9.18;7.78;;;15.50;99.90;;;;;;5088682;28;20465;-41
2021/08/23 01:39:33;;;;;;;9.05;7.60;;;15.50;99.90;;;;;;5088877;28;20089;-41
2021/08/23 01:42:02;;;;;;;10.57;8.00;;;15.50;99.90;;;;;;5089297;28;20055;-41
2021/08/23 01:44:28;;;;;;;10.93;8.27;;;15.40;99.90;;;;;;5087528;28;20497;-41
2021/08/23 01:46:53;;;;;;;9.90;7.10;;;15.40;99.90;;;;;;5088127;28;20028;-41
2021/08/23 01:49:19;;;;;;;8.77;7.47;;;15.30;99.90;;;;;;5087713;28;20028;-41
2021/08/23 01:51:44;;;;;;;10.68;7.40;;;15.20;99.90;;;;;;5088844;28;20035;-41
2021/08/23 01:54:10;;;;;;;11.40;7.95;;;15.20;99.90;;;;;;5086450;28;20485;-41
2021/08/23 01:56:35;;;;;;;13.63;7.78;;;15.20;99.90;;;;;;5070292;28;20070;-41
2021/08/23 01:59:02;;;;;;;10.25;7.32;;;15.20;99.90;;;;;;5087864;28;20020;-41
2021/08/23 02:01:29;;;;;;;10.68;6.72;;;15.20;99.90;;;;;;5088667;28;20023;-41
2021/08/23 02:03:54;;;;;;;11.95;7.30;;;15.10;99.90;;;;;;5088734;28;20024;-41
2021/08/23 02:06:20;;;;;;;9.15;7.05;;;15.10;99.90;;;;;;5087974;28;20060;-41
2021/08/23 02:08:46;;;;;;;8.93;7.00;;;15.10;99.90;;;;;;5088730;28;20496;-41
2021/08/23 02:11:11;;;;;;;12.45;6.88;;;15.10;99.90;;;;;;5087212;28;20027;-41
2021/08/23 02:13:37;;;;;;;10.60;7.63;;;15.10;99.90;;;;;;5088410;28;20077;-41
2021/08/23 02:16:03;;;;;;;10.45;7.20;;;15.10;99.90;;;;;;5088569;28;20100;-41
2021/08/23 02:18:28;;;;;;;10.77;7.40;;;15.20;99.90;;;;;;5087846;28;20115;-41
2021/08/23 02:20:54;;;;;;;11.05;7.13;;;15.20;99.90;;;;;;5088606;28;20056;-41
2021/08/23 02:23:19;;;;;;;9.70;6.38;;;15.20;99.90;;;;;;5088784;28;20448;-41
2021/08/23 02:25:45;;;;;;;10.15;6.88;;;15.20;99.90;;;;;;5075704;28;20134;-41
2021/08/23 02:28:10;;;;;;;11.02;7.40;;;15.30;99.90;;;;;;5061925;28;20465;-41
2021/08/23 02:30:38;;;;;;;10.65;6.45;;;15.30;99.90;;;;;;5091651;28;20103;-41
2021/08/23 02:33:04;;;;;;;11.38;6.60;;;15.30;99.90;;;;;;5092394;28;20036;-41
2021/08/23 02:35:29;;;;;;;7.82;6.15;;;15.30;99.90;;;;;;5092645;28;20042;-43
2021/08/23 02:37:55;;;;;;;10.68;7.20;;;15.40;99.90;;;;;;5090521;28;20020;-42
2021/08/23 02:40:20;;;;;;;11.95;6.30;;;15.40;99.90;;;;;;5092329;28;20027;-42
2021/08/23 02:42:47;;;;;;;11.70;6.70;;;15.40;99.90;;;;;;5092414;28;20115;-42
2021/08/23 02:45:13;;;;;;;10.48;6.70;;;15.40;99.90;;;;;;5092403;28;20481;-42
2021/08/23 02:47:39;;;;;;;9.85;6.70;;;15.40;99.90;;;;;;5091752;28;20066;-42
2021/08/23 02:50:07;;;;;;;9.75;6.72;;;15.40;99.90;;;;;;5092650;28;20055;-43
2021/08/23 02:52:33;;;;;;;9.50;6.05;;;15.50;99.90;;;;;;5092506;28;20035;-42
2021/08/23 02:54:58;;;;;;;14.73;6.60;;;15.50;99.90;;;;;;5081182;28;20037;-41
2021/08/23 02:57:24;;;;;;;11.25;7.43;;;15.50;99.90;;;;;;5083184;28;20066;-42
2021/08/23 02:59:49;;;;;;;11.30;8.05;;;15.50;99.90;;;;;;5092525;28;20049;-43
2021/08/23 03:02:15;;;;;;;13.48;7.07;;;15.50;99.90;;;;;;5090976;28;20024;-41
2021/08/23 03:04:40;;;;;;;13.75;7.07;;;15.50;99.90;;;;;;5092574;28;20243;-41
2021/08/23 03:07:06;;;;;;;9.45;7.38;;;15.50;99.90;;;;;;5091789;28;20039;-42
2021/08/23 03:09:31;;;;;;;14.48;6.90;;;15.50;99.90;;;;;;5092347;28;20141;-41
2021/08/23 03:11:57;;;;;;;14.55;6.95;;;15.50;99.90;;;;;;5092064;28;20377;-42
2021/08/23 03:14:23;;;;;;;10.88;7.22;;;15.40;99.90;;;;;;5091799;28;20050;-41
2021/08/23 03:16:49;;;;;;;10.23;6.53;;;15.40;99.90;;;;;;5091048;28;20111;-41
2021/08/23 03:19:14;;;;;;;9.30;7.05;;;15.50;99.90;;;;;;5091846;28;20028;-42
2021/08/23 03:21:40;;;;;;;15.60;8.00;;;15.50;99.90;;;;;;5091903;28;20035;-41
2021/08/23 03:24:05;;;;;;;12.30;7.75;;;15.50;99.90;;;;;;5091145;28;20028;-42
2021/08/23 03:26:31;;;;;;;12.07;6.90;;;15.50;99.90;;;;;;5073857;28;20542;-42
2021/08/23 03:28:56;;;;;;;11.27;6.78;;;15.50;99.90;;;;;;5090221;28;20028;-42
2021/08/23 03:31:22;;;;;;;10.68;7.25;;;15.50;99.90;;;;;;5091564;28;20312;-42
2021/08/23 03:33:47;;;;;;;16.90;7.93;;;15.50;99.90;;;;;;5091687;28;20385;-41
2021/08/23 03:36:13;;;;;;;13.25;7.20;;;15.50;99.90;;;;;;5091263;28;20059;-41
2021/08/23 03:38:38;;;;;;;10.40;7.15;;;15.50;99.90;;;;;;5091861;28;20039;-41
2021/08/23 03:41:04;;;;;;;12.35;6.80;;;15.50;99.90;;;;;;5090532;28;20477;-42
2021/08/23 03:43:29;;;;;;;12.63;6.80;;;15.50;99.90;;;;;;5090623;28;20030;-42
2021/08/23 03:45:55;;;;;;;8.15;5.88;;;15.60;99.90;;;;;;5091769;28;20089;-42
2021/08/23 03:48:21;;;;;;;8.57;5.85;;;15.50;99.90;;;;;;5090826;28;20263;-42
2021/08/23 03:50:46;;;;;;;12.25;6.55;;;15.60;99.90;;;;;;5091401;28;20028;-42
2021/08/23 03:53:12;;;;;;;8.95;5.85;;;15.60;99.90;;;;;;5091178;28;20085;-41
2021/08/23 03:55:37;;;;;;;10.38;6.15;;;15.60;99.90;;;;;;5080855;28;20028;-41
2021/08/23 03:58:04;;;;;;;7.25;5.20;;;15.60;99.90;;;;;;5082302;28;20089;-41
2021/08/23 04:00:30;;;;;;;9.52;5.95;;;15.60;99.90;;;;;;5091075;28;20059;-41
2021/08/23 04:02:56;;;;;;;12.18;7.43;;;15.60;99.90;;;;;;5089818;28;20082;-42
2021/08/23 04:05:21;;;;;;;8.25;5.90;;;15.60;99.90;;;;;;5085022;28;20431;-42
2021/08/23 04:07:47;;;;;;;12.25;6.50;;;15.60;99.90;;;;;;5060872;28;20020;-42
2021/08/23 04:10:13;;;;;;;11.10;6.80;;;15.60;99.90;;;;;;5055968;28;20024;-42
2021/08/23 04:12:38;;;;;;;7.88;5.57;;;15.60;99.90;;;;;;5050453;28;20098;-42
2021/08/23 04:15:04;;;;;;;8.95;5.90;;;15.60;99.90;;;;;;5049422;28;20032;-42
2021/08/23 04:17:31;;;;;;;7.57;5.85;;;15.60;99.90;;;;;;5048640;28;20025;-42
2021/08/23 04:19:58;;;;;;;6.95;5.20;;;15.60;99.90;;;;;;5050436;28;20112;-42
2021/08/23 04:22:24;;;;;;;11.73;5.40;;;15.60;99.90;;;;;;5050290;28;20036;-40
2021/08/23 04:24:49;;;;;;;9.60;6.65;;;15.60;99.90;;;;;;5051537;28;20471;-41
2021/08/23 04:27:14;;;;;;;10.02;5.90;;;15.60;99.90;;;;;;5081741;28;20095;-41
2021/08/23 04:29:40;;;;;;;8.05;5.43;;;15.50;99.90;;;;;;5090514;28;20420;-42
2021/08/23 04:32:06;;;;;;;8.88;5.57;;;15.50;99.90;;;;;;5090930;28;20028;-41
2021/08/23 04:34:31;;;;;;;9.07;5.30;;;15.50;99.90;;;;;;5090655;28;20032;-41
2021/08/23 04:37:03;;;;;;;9.25;5.35;;;15.50;99.90;;;;;;5090092;28;20068;-42
2021/08/23 04:39:28;;;;;;;8.35;5.28;;;15.60;99.90;;;;;;5090677;28;20057;-41
2021/08/23 04:41:54;;;;;;;12.98;5.30;;;15.60;99.90;;;;;;5090341;28;20498;-41
2021/08/23 04:44:19;;;;;;;10.13;5.68;;;15.50;99.90;;;;;;5090498;28;20049;-42
2021/08/23 04:46:47;;;;;;;11.23;6.10;;;15.50;99.90;;;;;;5058072;28;20032;-43
2021/08/23 04:49:12;;;;;;;8.25;5.38;;;15.50;99.90;;;;;;5049855;28;20028;-46
2021/08/23 04:51:38;;;;;;;9.80;5.88;;;15.40;99.90;;;;;;5049803;28;20047;-42
2021/08/23 04:54:03;;;;;;;7.97;5.70;;;15.40;99.90;;;;;;5049459;28;20029;-43
2021/08/23 04:56:29;;;;;;;7.40;5.38;;;15.40;99.90;;;;;;5071895;28;20414;-42
2021/08/23 04:58:54;;;;;;;7.30;5.70;;;15.40;99.90;;;;;;5088078;28;20023;-43
2021/08/23 05:01:20;;;;;;;9.00;5.38;;;15.30;99.90;;;;;;5088762;28;20099;-42
2021/08/23 05:03:45;;;;;;;7.93;5.32;;;15.40;99.90;;;;;;5088641;28;20024;-44
2021/08/23 05:06:11;;;;;;;10.18;6.10;;;15.30;99.90;;;;;;5089453;28;20024;-43
2021/08/23 05:08:36;;;;;;;9.73;6.15;;;15.30;99.90;;;;;;5089622;28;20042;-43
2021/08/23 05:11:02;;;;;;;14.75;7.25;;;15.40;99.90;;;;;;5089512;28;20027;-43
2021/08/23 05:13:27;;;;;;;9.68;5.85;;;15.30;99.90;;;;;;5088081;28;20494;-43
2021/08/23 05:15:53;;;;;;;10.43;6.55;;;15.30;99.90;;;;;;5082240;28;20056;-43
2021/08/23 05:18:18;;;;;;;9.65;6.70;;;15.30;99.90;;;;;;5048624;28;20047;-43
2021/08/23 05:20:44;;;;;;;8.65;5.95;;;15.40;99.90;;;;;;5049057;28;20025;-43
2021/08/23 05:23:09;;;;;;;12.48;6.20;;;15.40;99.90;;;;;;5049170;28;20025;-42
2021/08/23 05:25:36;;;;;;;9.60;6.78;;;15.40;99.90;;;;;;5056752;28;20051;-42
2021/08/23 05:28:05;;;;;;;9.05;6.72;;;15.40;99.90;;;;;;5069500;28;20025;-42
2021/08/23 05:30:31;;;;;;;11.63;5.93;;;15.30;99.90;;;;;;5050160;28;20041;-42
2021/08/23 05:32:57;;;;;;;9.07;6.13;;;15.40;99.90;;;;;;5057323;28;20042;-43
2021/08/23 05:35:22;;;;;;;9.38;6.13;;;15.40;99.90;;;;;;5074563;28;20086;-43
2021/08/23 05:37:49;;;;;;;10.90;7.03;;;15.40;99.90;;;;;;5059981;28;20017;-43
2021/08/23 05:40:16;;;;;;;11.93;6.97;;;15.40;99.90;;;;;;5061494;28;20019;-42
2021/08/23 05:42:42;;;;;;;10.70;5.78;;;15.40;99.90;;;;;;5074083;28;20174;-42
2021/08/23 05:45:08;;;;;;;8.55;5.60;;;15.50;99.90;;;;;;5062352;28;20129;-42
2021/08/23 05:47:35;;;;;;;9.18;6.38;;;15.50;99.90;;;;;;5058169;28;20612;-43
2021/08/23 05:50:01;;;;;;;8.05;6.22;;;15.50;99.90;;;;;;5081223;28;20028;-42
2021/08/23 05:52:26;;;;;;;9.07;5.82;;;15.50;99.90;;;;;;5058673;28;20161;-42
2021/08/23 05:54:52;;;;;;;10.35;6.47;;;15.50;99.90;;;;;;5051473;28;20037;-43
2021/08/23 05:57:17;;;;;;;9.60;6.65;;;15.60;99.90;;;;;;5064081;28;20027;-42
2021/08/23 05:59:44;;;;;;;11.02;6.78;;;15.60;99.90;;;;;;5058776;28;20082;-43
2021/08/23 06:02:09;;;;;;;12.27;6.22;;;15.60;99.90;;;;;;5062166;28;20024;-43
2021/08/23 06:04:35;;;;;;;8.73;5.90;;;15.60;99.90;;;;;;5055898;28;20606;-42
2021/08/23 06:07:00;;;;;;;8.82;5.63;;;15.60;99.90;;;;;;5057930;28;20036;-42
2021/08/23 06:09:26;;;;;;;10.43;6.63;;;15.60;99.90;;;;;;5054384;28;20033;-42
2021/08/23 06:11:52;;;;;;;9.15;6.20;;;15.60;99.90;;;;;;5061197;28;20023;-41
2021/08/23 06:14:18;;;;;;;10.30;5.63;;;15.70;99.90;;;;;;5061457;28;20386;-42
2021/08/23 06:16:44;;;;;;;10.63;5.63;;;15.70;99.90;;;;;;5047116;28;20017;-42
2021/08/23 06:19:09;;;;;;;8.65;5.78;;;15.70;99.90;;;;;;5063719;28;20031;-42
2021/08/23 06:21:35;;;;;;;11.40;6.20;;;15.60;99.90;;;;;;5053994;28;20028;-42
2021/08/23 06:24:01;;;;;;;7.72;5.53;;;15.70;99.90;;;;;;5056382;28;20028;-42
2021/08/23 06:26:26;;;;;;;12.20;6.22;;;15.70;99.90;;;;;;5061084;28;20033;-42
2021/08/23 06:28:52;;;;;;;8.32;6.10;;;15.80;99.90;;;;;;5060440;28;20029;-41
2021/08/23 06:31:17;;;;;;;6.70;5.50;;;15.80;99.90;;;;;;5055908;28;20116;-42
2021/08/23 06:33:43;;;;;;;9.63;5.60;;;15.80;99.90;;;;;;5062392;28;20031;-42
2021/08/23 06:36:08;;;;;;;7.00;5.25;;;15.90;99.90;;;;;;5061415;28;20091;-42
2021/08/23 06:38:34;;;;;;;11.38;5.97;;;15.90;99.90;;;;;;5057557;28;20145;-43
2021/08/23 06:40:59;;;;;;;7.93;5.82;;;16.00;99.90;;;;;;5056486;28;20095;-43
2021/08/23 06:43:25;;;;;;;10.18;5.85;;;16.10;99.90;;;;;;5055601;28;20698;-43
2021/08/23 06:45:51;;;;;;;8.23;5.50;;;16.10;99.90;;;;;;5056840;28;20128;-42
2021/08/23 06:48:17;;;;;;;13.40;6.07;;;16.20;99.90;;;;;;5055071;28;20556;-42
2021/08/23 06:50:43;;;;;;;12.63;6.75;;;16.30;99.90;;;;;;5057694;28;20024;-42
2021/08/23 06:53:08;;;;;;;9.48;5.63;;;16.30;99.90;;;;;;5056464;28;20017;-42
2021/08/23 06:55:34;;;;;;;8.55;6.00;;;16.30;99.90;;;;;;5056511;28;20029;-42
2021/08/23 06:58:00;;;;;;;10.30;5.25;;;16.40;99.90;;;;;;5055155;28;20111;-42
2021/08/23 07:00:26;;;;;;;9.13;5.00;;;16.50;99.90;;;;;;5053816;28;20563;-42
2021/08/23 07:02:52;;;;;;;7.95;5.57;;;16.60;99.90;;;;;;5059084;28;20057;-41
2021/08/23 07:05:18;;;;;;;13.40;6.00;;;16.70;99.90;;;;;;5058401;28;20064;-42
2021/08/23 07:07:43;;;;;;;8.70;5.07;;;16.80;99.90;;;;;;5062329;28;20046;-41
2021/08/23 07:10:11;;;;;;;9.60;5.50;;;16.80;99.90;;;;;;5063189;28;20031;-42
2021/08/23 07:12:38;;;;;;;7.80;6.00;;;16.90;99.90;;;;;;5072990;28;20035;-42
2021/08/23 07:15:04;;;;;;;9.65;5.40;;;17.00;99.90;;;;;;5068018;28;20036;-42
2021/08/23 07:17:29;;;;;;;8.57;5.22;;;17.00;99.90;;;;;;5082007;28;20088;-42
2021/08/23 07:19:55;;;;;;;6.88;5.03;;;17.00;99.90;;;;;;5072479;28;20367;-42
2021/08/23 07:22:22;;;;;;;8.38;5.15;;;17.10;99.90;;;;;;5065474;28;20024;-42
2021/08/23 07:24:48;;;;;;;7.63;5.07;;;17.00;99.90;;;;;;5076655;28;20368;-43
2021/08/23 07:27:14;;;;;;;8.57;5.60;;;17.10;99.90;;;;;;5070563;28;20044;-42
2021/08/23 07:29:40;;;;;;;8.02;5.72;;;17.10;99.90;;;;;;5073002;28;20098;-45
2021/08/23 07:32:06;;;;;;;11.40;5.60;;;17.00;99.90;;;;;;5081713;28;20493;-43
2021/08/23 07:34:31;;;;;;;7.20;5.20;;;17.10;99.90;;;;;;5091519;28;20509;-43
2021/08/23 07:36:57;;;;;;;12.95;5.90;;;17.10;99.90;;;;;;5075514;28;20044;-42
2021/08/23 07:39:22;;;;;;;12.82;5.07;;;17.20;99.90;;;;;;5058216;28;20037;-43
2021/08/23 07:41:48;;;;;;;9.32;5.20;;;17.20;99.90;;;;;;5071069;28;20067;-43
2021/08/23 07:44:14;;;;;;;7.63;4.90;;;17.30;99.90;;;;;;5071075;28;20024;-42
2021/08/23 07:46:39;;;;;;;7.10;4.97;;;17.30;99.90;;;;;;5061881;28;20037;-42
2021/08/23 07:49:05;;;;;;;7.22;4.68;;;17.30;99.90;;;;;;5082074;28;20032;-43
2021/08/23 07:51:31;;;;;;;7.32;4.95;;;17.20;99.90;;;;;;5078401;28;20036;-42
2021/08/23 07:53:57;;;;;;;8.48;4.72;;;17.30;99.90;;;;;;5070899;28;20036;-44
2021/08/23 07:56:22;;;;;;;8.07;4.57;;;17.30;99.90;;;;;;5079196;28;20085;-43
2021/08/23 07:58:48;;;;;;;6.78;3.85;;;17.30;99.90;;;;;;5070805;28;20016;-43
2021/08/23 08:01:13;;;;;;;6.45;4.38;;;17.30;99.90;;;;;;5081099;28;20020;-43
2021/08/23 08:03:39;;;;;;;6.65;4.07;;;17.40;99.90;;;;;;5089838;28;20020;-43
2021/08/23 08:06:05;;;;;;;7.43;4.38;;;17.40;99.90;;;;;;5090841;28;20031;-42
2021/08/23 08:08:31;;;;;;;6.43;4.00;;;17.50;99.90;;;;;;5090143;28;20389;-45
2021/08/23 08:10:57;;;;;;;9.75;4.85;;;17.50;99.90;;;;;;5089700;28;20024;-42
2021/08/23 08:13:24;;;;;;;7.57;4.07;;;17.50;99.90;;;;;;5080411;28;20036;-45
2021/08/23 08:15:50;;;;;;;5.72;3.90;;;17.60;99.90;;;;;;5069392;28;20017;-43
2021/08/23 08:18:15;;;;;;;7.35;4.40;;;17.60;99.90;;;;;;5069906;28;20395;-44
2021/08/23 08:20:41;;;;;;;10.32;4.25;;;17.80;99.90;;;;;;5074831;28;20107;-47
2021/08/23 08:23:06;;;;;;;6.50;4.40;;;17.80;99.90;;;;;;5077859;28;20029;-44
2021/08/23 08:25:32;;;;;;;7.75;4.07;;;17.90;99.90;;;;;;5066774;28;20039;-45
2021/08/23 08:27:57;;;;;;;7.85;3.53;;;18.20;99.90;;;;;;5079396;28;20149;-43
2021/08/23 08:30:23;;;;;;;8.55;3.60;;;18.40;99.90;;;;;;5076891;28;20024;-43
2021/08/23 08:32:49;;;;;;;6.28;3.72;;;18.90;99.90;;;;;;5077771;28;20035;-43
2021/08/23 08:35:14;;;;;;;4.60;3.10;;;19.40;99.90;;;;;;5069931;28;20036;-43
2021/08/23 08:37:41;;;;;;;5.22;3.28;;;20.60;99.90;;;;;;5067895;28;20024;-44
2021/08/23 08:40:08;;;;;;;7.68;3.42;;;21.40;99.90;;;;;;5068159;28;20025;-43
2021/08/23 08:42:34;;;;;;;4.10;2.78;;;22.00;99.90;;;;;;5050001;28;20021;-44
2021/08/23 08:44:59;;;;;;;5.50;2.88;;;22.30;99.90;;;;;;5054771;28;20544;-44
2021/08/23 08:47:25;;;;;;;5.70;2.88;;;22.10;99.90;;;;;;5088763;28;20020;-43
2021/08/23 08:49:52;;;;;;;3.08;2.13;;;21.90;99.90;;;;;;5083622;28;20056;-43
2021/08/23 08:52:19;;;;;;;6.13;2.60;;;21.60;99.90;;;;;;5069725;28;20024;-43
2021/08/23 08:54:45;;;;;;;6.93;2.40;;;21.40;99.90;;;;;;5068641;28;20070;-42
2021/08/23 08:57:12;;;;;;;5.20;3.20;;;21.30;99.90;;;;;;5075316;28;20017;-42
2021/08/23 08:59:37;;;;;;;2.88;2.50;;;21.10;99.90;;;;;;5050882;28;20033;-43
2021/08/23 09:02:04;;;;;;;5.53;2.28;;;21.00;99.90;;;;;;5067511;28;20020;-43
2021/08/23 09:04:37;;;;;;;3.80;2.33;;;21.00;99.90;;;;;;5072847;28;20025;-43
2021/08/23 09:07:05;;;;;;;2.35;1.80;;;20.80;99.90;;;;;;5072156;28;20024;-43
2021/08/23 09:09:31;;;;;;;4.38;2.42;;;20.70;99.90;;;;;;5068835;28;20372;-43
2021/08/23 09:12:09;;;;;;;5.30;2.50;;;20.70;99.90;;;;;;5077247;28;20430;-43
2021/08/23 09:14:55;;;;;;;8.35;2.10;;;20.70;99.90;;;;;;5058252;28;20029;-43
2021/08/23 09:17:25;;;;;;;3.78;1.90;;;20.80;99.90;;;;;;5058768;28;20498;-42
2021/08/23 09:20:03;;;;;;;5.43;2.25;;;21.00;99.90;;;;;;5055964;28;20259;-43
2021/08/23 09:22:28;;;;;;;6.85;2.38;;;22.00;99.90;;;;;;5050058;28;20040;-44
2021/08/23 09:24:54;;;;;;;3.35;1.80;;;23.30;99.90;;;;;;5056542;28;20029;-43
2021/08/23 09:27:20;;;;;;;4.80;2.10;;;24.10;99.90;;;;;;5062057;28;20090;-43
2021/08/23 09:29:59;;;;;;;4.95;1.80;;;24.60;99.50;;;;;;5058744;28;20482;-43
2021/08/23 09:32:27;;;;;;;2.78;1.88;;;25.60;97.40;;;;;;5065353;28;20047;-43
2021/08/23 09:34:53;;;;;;;6.72;2.10;;;26.40;94.40;;;;;;5058990;28;20104;-44
2021/08/23 09:37:30;;;;;;;3.15;1.77;;;27.70;91.20;;;;;;5056208;28;20020;-43
2021/08/23 09:40:06;;;;;;;4.20;1.85;;;28.90;86.30;;;;;;5054410;28;20025;-44
2021/08/23 09:42:32;;;;;;;4.32;1.95;;;30.00;82.70;;;;;;5052391;28;20482;-44
2021/08/23 09:44:57;;;;;;;1.63;1.38;;;30.90;74.80;;;;;;5058689;28;20108;-44
2021/08/23 09:47:28;;;;;;;4.72;1.50;;;31.90;70.10;;;;;;5054394;28;20116;-45
2021/08/23 09:49:53;;;;;;;4.28;1.67;;;32.10;66.20;;;;;;5051434;28;20033;-44
2021/08/23 09:52:30;;;;;;;1.20;1.10;;;31.90;59.70;;;;;;5060940;28;20028;-45
2021/08/23 09:55:04;;;;;;;2.42;1.58;;;31.10;59.50;;;;;;5060882;28;20056;-44
2021/08/23 09:57:38;;;;;;;3.80;2.10;;;30.60;60.10;;;;;;5057945;28;20432;-44
2021/08/23 10:00:11;;;;;;;2.08;1.20;;;30.70;63.30;;;;;;5056303;28;20028;-45
2021/08/23 10:02:48;;;;;;;6.40;1.50;;;31.10;59.70;;;;;;5060910;28;20059;-44
2021/08/23 10:05:16;;;;;;;2.85;1.15;;;31.00;57.70;;;;;;5055944;28;20075;-47
2021/08/23 10:07:42;;;;;;;6.00;1.30;;;31.80;56.20;;;;;;5059001;28;20075;-44
2021/08/23 10:10:08;;;;;;;1.42;1.33;;;31.10;51.70;;;;;;5054010;28;20500;-45
2021/08/23 10:12:34;;;;;;;1.55;1.33;;;31.30;53.20;;;;;;5058038;28;20617;-44
2021/08/23 10:15:00;;;;;;;1.75;1.30;;;31.70;53.10;;;;;;5060074;28;20043;-44
2021/08/23 10:17:31;;;;;;;2.28;1.70;;;32.40;51.70;;;;;;5058733;28;20025;-45
2021/08/23 10:19:56;;;;;;;2.20;1.20;;;32.80;47.40;;;;;;5059178;28;20035;-44
2021/08/23 10:22:22;;;;;;;2.33;2.10;;;33.10;48.60;;;;;;5056469;28;20534;-47
2021/08/23 10:24:48;;;;;;;5.15;1.55;;;33.50;46.90;;;;;;5060599;28;20024;-47
2021/08/23 10:27:24;;;;;;;2.13;1.27;;;34.40;44.80;;;;;;5066623;28;20051;-47
2021/08/23 10:29:50;;;;;;;1.58;1.40;;;34.30;45.30;;;;;;5062950;28;20034;-44
2021/08/23 10:32:16;;;;;;;1.33;1.23;;;34.40;44.90;;;;;;5062505;28;20452;-47
2021/08/23 10:34:43;;;;;;;1.55;1.20;;;34.70;42.80;;;;;;5081485;28;20038;-46
2021/08/23 10:37:20;;;;;;;3.30;1.30;;;35.20;44.80;;;;;;5088026;28;20024;-44
2021/08/23 10:39:46;;;;;;;1.42;0.90;;;34.60;44.20;;;;;;5071790;28;20103;-43
2021/08/23 10:42:13;;;;;;;2.40;1.27;;;34.90;42.20;;;;;;5051731;28;20103;-43
2021/08/23 10:44:40;;;;;;;1.10;1.00;;;34.70;44.40;;;;;;5051294;28;20063;-45
2021/08/23 10:47:10;;;;;;;0.70;0.70;;;35.40;44.70;;;;;;5075597;28;20402;-44
2021/08/23 10:49:44;;;;;;;1.33;1.08;;;34.80;40.70;;;;;;5067162;28;20112;-43
2021/08/23 10:52:15;;;;;;;1.70;1.05;;;35.30;41.50;;;;;;5057014;28;20037;-47
2021/08/23 10:54:43;;;;;;;5.75;1.23;;;35.40;43.20;;;;;;5053642;28;20112;-44
2021/08/23 10:57:11;;;;;;;2.28;1.00;;;35.10;43.10;;;;;;5072824;28;20082;-43
2021/08/23 10:59:48;;;;;;;2.78;1.20;;;35.20;42.30;;;;;;5066800;28;20021;-43
2021/08/23 11:02:27;;;;;;;1.02;0.80;;;35.70;44.20;;;;;;5064413;28;20400;-43
2021/08/23 11:05:10;;;;;;;5.25;1.65;;;36.40;39.00;;;;;;5061744;28;20025;-44
2021/08/23 11:07:38;;;;;;;3.63;1.33;;;35.70;39.60;;;;;;5061702;28;20033;-44
2021/08/23 11:10:08;;;;;;;1.42;1.23;;;35.20;39.30;;;;;;5060678;28;20020;-43
2021/08/23 11:12:54;;;;;;;1.85;1.00;;;35.20;40.10;;;;;;5058860;28;20047;-43
2021/08/23 11:15:32;;;;;;;1.70;0.98;;;35.50;40.10;;;;;;5061794;28;20025;-44
2021/08/23 11:18:01;;;;;;;2.20;1.20;;;35.90;39.30;;;;;;5055620;28;20055;-43
2021/08/23 11:20:29;;;;;;;3.10;1.00;;;35.80;40.10;;;;;;5061683;28;20021;-44
2021/08/23 11:23:00;;;;;;;5.60;0.93;;;35.80;39.50;;;;;;5061024;28;20082;-44
2021/08/23 11:25:34;;;;;;;3.70;1.00;;;35.70;41.00;;;;;;5062134;28;20082;-44
2021/08/23 11:28:03;;;;;;;1.98;1.13;;;36.20;39.80;;;;;;5064095;28;20377;-45
2021/08/23 11:30:33;;;;;;;1.40;1.00;;;35.90;37.90;;;;;;5060172;28;20044;-44
2021/08/23 11:32:59;;;;;;;1.17;0.90;;;35.50;39.00;;;;;;5065474;28;20024;-44
2021/08/23 11:35:25;;;;;;;3.47;1.00;;;35.60;38.50;;;;;;5063826;28;20112;-44
2021/08/23 11:37:55;;;;;;;4.97;1.25;;;35.00;38.40;;;;;;5058338;28;20088;-44
2021/08/23 11:40:21;;;;;;;2.08;1.27;;;34.90;38.30;;;;;;5058806;28;20029;-47
2021/08/23 11:42:51;;;;;;;2.67;1.42;;;34.90;37.80;;;;;;5057896;28;20581;-44
2021/08/23 11:45:38;;;;;;;2.20;1.45;;;34.40;39.00;;;;;;5059328;28;20052;-44
2021/08/23 11:48:05;;;;;;;3.95;1.50;;;34.50;38.90;;;;;;5060873;28;20028;-45
2021/08/23 11:50:31;;;;;;;3.08;1.55;;;34.20;39.30;;;;;;5061029;28;20047;-44
2021/08/23 11:53:05;;;;;;;2.55;1.75;;;34.30;39.30;;;;;;5062148;28;20031;-44
2021/08/23 11:55:34;;;;;;;2.35;1.55;;;34.30;37.10;;;;;;5061246;28;20044;-44
2021/08/23 11:58:09;;;;;;;3.60;1.70;;;34.20;39.30;;;;;;5062085;28;20032;-44
2021/08/23 12:00:36;;;;;;;3.97;1.80;;;34.20;38.00;;;;;;5059920;28;20359;-44
2021/08/23 12:03:16;;;;;;;2.20;1.80;;;34.00;39.30;;;;;;5056723;28;20111;-45
2021/08/23 12:05:46;;;;;;;3.47;2.03;;;33.30;39.00;;;;;;5058133;28;20019;-44
2021/08/23 12:08:28;;;;;;;3.88;2.00;;;33.70;38.50;;;;;;5052135;28;20064;-43
2021/08/23 12:11:01;;;;;;;3.17;2.30;;;33.20;38.40;;;;;;5060298;28;20686;-45
2021/08/23 12:13:39;;;;;;;3.42;2.25;;;32.80;41.10;;;;;;5058437;28;20269;-43
2021/08/23 12:16:12;;;;;;;5.05;2.90;;;32.40;40.20;;;;;;5057594;28;20021;-44
2021/08/23 12:18:41;;;;;;;4.22;2.95;;;31.70;40.90;;;;;;5056944;28;20767;-45
2021/08/23 12:21:08;;;;;;;3.35;2.78;;;31.30;42.20;;;;;;5057637;28;20372;-44
2021/08/23 12:24:02;;;;;;;5.07;2.83;;;31.00;43.80;;;;;;5051642;28;20021;-43
2021/08/23 12:26:41;;;;;;;5.85;2.58;;;30.50;41.70;;;;;;5050769;28;20426;-44
2021/08/23 12:29:20;;;;;;;5.00;2.47;;;30.10;46.00;;;;;;5054091;28;20036;-44
2021/08/23 12:32:11;;;;;;;5.03;3.15;;;29.90;46.70;;;;;;5064102;28;20384;-43
2021/08/23 12:34:41;;;;;;;4.75;2.58;;;29.70;47.90;;;;;;5050628;28;20064;-45
2021/08/23 12:37:07;;;;;;;3.15;2.50;;;29.40;46.60;;;;;;5059086;28;20255;-45
2021/08/23 12:39:33;;;;;;;4.78;2.55;;;29.20;47.30;;;;;;5055663;28;20521;-44
2021/08/23 12:42:01;;;;;;;4.82;2.22;;;29.00;48.40;;;;;;5057457;28;20398;-44
2021/08/23 12:44:26;;;;;;;3.63;2.30;;;28.90;49.70;;;;;;5062821;28;20047;-46